createdAt,value
2023-04-17T00:00:49.312Z,86.76
2023-04-17T00:02:27.811Z,86.75
2023-04-17T00:04:02.261Z,86.90
2023-04-17T00:17:32.127Z,87.26
2023-04-17T00:18:57.391Z,87.34
2023-04-17T00:20:29.958Z,87.47
2023-04-17T00:22:02.505Z,87.59
2023-04-17T00:23:35.371Z,87.38
2023-04-17T00:25:09.290Z,87.51
2023-04-17T00:26:46.887Z,87.56
2023-04-17T00:34:54.445Z,87.58
2023-04-17T00:36:28.384Z,87.70
2023-04-17T00:38:01.694Z,87.63
2023-04-17T00:39:34.135Z,87.75
2023-04-17T00:41:06.966Z,87.76
2023-04-17T00:44:38.657Z,87.74
2023-04-17T00:46:11.308Z,87.63
2023-04-17T00:47:43.981Z,87.51
2023-04-17T00:49:09.445Z,87.75
2023-04-17T00:50:41.977Z,87.84
2023-04-17T00:52:14.668Z,87.79
2023-04-17T00:53:47.579Z,87.78
2023-04-17T00:54:53.806Z,87.93
2023-04-17T00:56:27.655Z,87.72
2023-04-17T01:05:48.068Z,88.12
2023-04-17T01:07:16.035Z,88.23
2023-04-17T01:08:48.545Z,88.08
2023-04-17T01:10:21.004Z,88.62
2023-04-17T01:11:53.473Z,88.50
2023-04-17T01:13:19.456Z,88.33
2023-04-17T01:14:51.909Z,88.37
2023-04-17T01:16:24.419Z,88.39
2023-04-17T01:17:56.116Z,88.43
2023-04-17T01:19:14.017Z,88.45
2023-04-17T01:20:50.805Z,88.30
2023-04-17T01:22:23.407Z,88.24
2023-04-17T01:23:50.120Z,88.47
2023-04-17T01:27:55.583Z,88.74
2023-04-17T01:29:31.066Z,88.57
2023-04-17T01:30:53.643Z,88.60
2023-04-17T01:32:11.331Z,88.69
2023-04-17T01:33:34.442Z,88.80
2023-04-17T01:35:07.025Z,88.69
2023-04-17T01:36:40.089Z,88.76
2023-04-17T01:38:13.388Z,88.85
2023-04-17T01:39:45.929Z,88.82
2023-04-17T01:41:09.107Z,89.08
2023-04-17T01:42:24.476Z,89.12
2023-04-17T01:43:38.583Z,89.20
2023-04-17T01:45:11.033Z,89.15
2023-04-17T01:46:42.933Z,89.30
2023-04-17T01:48:05.533Z,89.38
2023-04-17T01:49:28.058Z,89.43
2023-04-17T01:50:43.133Z,89.37
2023-04-17T01:52:16.792Z,89.62
2023-04-17T01:53:49.625Z,89.65
2023-04-17T01:55:04.728Z,89.74
2023-04-17T01:56:18.705Z,89.82
2023-04-17T01:57:51.399Z,89.86
2023-04-17T01:58:53.901Z,89.98
2023-04-17T02:00:19.456Z,90.06
2023-04-17T02:01:33.870Z,89.95
2023-04-17T02:02:59.630Z,90.04
2023-04-17T02:04:33.522Z,90.08
2023-04-17T02:17:32.703Z,90.66
2023-04-17T02:19:14.134Z,90.69
2023-04-17T02:20:48.354Z,90.71
2023-04-17T02:22:23.125Z,90.84
2023-04-17T02:23:55.868Z,91.02
2023-04-17T02:25:09.037Z,90.98
2023-04-17T02:26:27.074Z,91.01
2023-04-17T02:27:39.481Z,90.92
2023-04-17T02:29:01.880Z,91.10
2023-04-17T02:30:14.100Z,91.21
2023-04-17T02:31:38.210Z,91.14
2023-04-17T02:33:10.812Z,91.29
2023-04-17T02:34:31.061Z,91.42
2023-04-17T02:36:03.547Z,91.38
2023-04-17T02:37:25.962Z,91.34
2023-04-17T02:38:50.421Z,91.42
2023-04-17T02:40:22.897Z,91.44
2023-04-17T02:41:55.445Z,91.53
2023-04-17T02:43:28.157Z,91.48
2023-04-17T02:44:53.332Z,91.59
2023-04-17T02:46:25.967Z,91.71
2023-04-17T02:47:38.409Z,91.84
2023-04-17T02:48:59.821Z,91.78
2023-04-17T02:51:46.775Z,91.75
2023-04-17T02:53:19.292Z,91.81
2023-04-17T02:54:51.916Z,91.86
2023-04-17T02:56:13.559Z,91.86
2023-04-17T02:57:46.417Z,92.12
2023-04-17T02:59:20.090Z,92.06
2023-04-17T03:00:53.852Z,92.08
2023-04-17T03:02:19.503Z,92.22
2023-04-17T03:03:45.055Z,92.20
2023-04-17T03:05:17.772Z,92.18
2023-04-17T03:06:50.253Z,92.16
2023-04-17T03:08:16.373Z,92.02
2023-04-17T03:09:38.292Z,92.18
2023-04-17T03:11:01.435Z,92.18
2023-04-17T03:12:07.583Z,92.15
2023-04-17T03:13:40.198Z,92.32
2023-04-17T03:15:12.563Z,92.27
2023-04-17T03:16:45.287Z,92.18
2023-04-17T03:18:09.879Z,92.20
2023-04-17T03:19:31.559Z,92.33
2023-04-17T03:21:04.217Z,92.29
2023-04-17T03:22:37.662Z,92.25
2023-04-17T03:23:51.857Z,92.31
2023-04-17T03:25:28.644Z,92.52
2023-04-17T03:27:02.185Z,92.27
2023-04-17T03:27:59.832Z,92.34
2023-04-17T03:29:32.351Z,92.44
2023-04-17T03:31:04.925Z,92.34
2023-04-17T03:32:28.899Z,92.33
2023-04-17T03:34:01.308Z,92.47
2023-04-17T03:35:26.910Z,92.59
2023-04-17T03:37:21.446Z,92.59
2023-04-17T03:38:53.942Z,92.62
2023-04-17T03:40:26.440Z,92.42
2023-04-17T03:41:59.135Z,92.60
2023-04-17T03:43:31.739Z,92.69
2023-04-17T03:45:04.157Z,92.63
2023-04-17T04:29:05.579Z,92.82
2023-04-17T04:30:39.664Z,92.82
2023-04-17T04:31:52.796Z,92.80
2023-04-17T04:33:17.925Z,93.10
2023-04-17T04:34:50.423Z,92.86
2023-04-17T04:36:23.087Z,92.95
2023-04-17T04:37:55.388Z,93.07
2023-04-17T04:39:27.931Z,93.03
2023-04-17T04:40:50.460Z,93.15
2023-04-17T04:41:56.590Z,93.09
2023-04-17T04:43:22.645Z,93.07
2023-04-17T04:44:56.391Z,93.17
2023-04-17T04:46:28.842Z,93.25
2023-04-17T05:15:03.776Z,93.58
2023-04-17T05:16:16.185Z,93.43
2023-04-17T05:17:48.901Z,93.59
2023-04-17T05:19:12.550Z,93.68
2023-04-17T05:20:48.354Z,93.59
2023-04-17T05:21:57.236Z,93.60
2023-04-17T05:23:22.460Z,93.76
2023-04-17T05:24:54.976Z,93.79
2023-04-17T05:26:21.441Z,93.80
2023-04-17T05:27:39.258Z,93.82
2023-04-17T05:29:12.421Z,93.88
2023-04-17T05:39:38.573Z,94.21
2023-04-17T05:41:12.216Z,94.17
2023-04-17T05:42:45.269Z,94.16
2023-04-17T05:43:50.410Z,94.13
2023-04-17T05:45:25.431Z,94.38
2023-04-17T05:46:57.751Z,94.32
2023-04-17T05:48:23.424Z,94.29
2023-04-17T05:49:55.886Z,94.30
2023-04-17T05:51:28.365Z,94.22
2023-04-17T05:53:01.103Z,94.15
2023-04-17T05:54:33.511Z,94.35
2023-04-17T05:57:58.241Z,94.42
2023-04-17T05:59:10.728Z,94.56
2023-04-17T06:00:43.606Z,94.67
2023-04-17T06:02:16.297Z,94.64
2023-04-17T06:03:37.756Z,94.61
2023-04-17T06:04:55.797Z,94.72
2023-04-17T06:06:28.481Z,94.72
2023-04-17T06:08:01.259Z,94.65
2023-04-17T06:09:32.545Z,94.71
2023-04-17T06:11:05.439Z,94.56
2023-04-17T06:20:42.486Z,95.00
2023-04-17T06:22:14.941Z,95.20
2023-04-17T06:23:47.580Z,95.10
2023-04-17T06:25:08.725Z,95.15
2023-04-17T06:26:41.659Z,95.03
2023-04-17T06:34:59.057Z,95.24
2023-04-17T06:36:30.594Z,95.31
2023-04-17T06:37:42.787Z,95.43
2023-04-17T06:39:15.293Z,95.51
2023-04-17T06:40:48.948Z,95.37
2023-04-17T06:42:02.857Z,95.37
2023-04-17T06:43:35.381Z,95.38
2023-04-17T06:44:59.536Z,95.33
2023-04-17T06:46:06.533Z,95.40
2023-04-17T06:47:39.529Z,95.49
2023-04-17T07:00:16.335Z,95.70
2023-04-17T07:18:01.104Z,96.07
2023-04-17T07:19:34.808Z,96.25
2023-04-17T07:26:48.242Z,96.10
2023-04-17T07:40:33.415Z,96.39
2023-04-17T07:42:07.185Z,96.34
2023-04-17T07:43:39.778Z,96.45
2023-04-17T07:45:12.262Z,96.57
2023-04-17T07:46:27.949Z,96.57
2023-04-17T07:47:49.206Z,96.55
2023-04-17T07:49:22.954Z,96.45
2023-04-17T08:06:00.500Z,96.90
2023-04-17T08:07:33.051Z,96.87
2023-04-17T08:09:05.768Z,96.85
2023-04-17T08:10:38.305Z,96.85
2023-04-17T08:12:10.492Z,96.82
2023-04-17T08:23:01.118Z,97.00
2023-04-17T08:24:15.011Z,96.71
2023-04-17T08:25:49.899Z,96.89
2023-04-17T08:27:23.805Z,96.77
2023-04-17T08:28:57.821Z,96.94
2023-04-17T08:30:24.480Z,96.93
2023-04-17T08:32:13.490Z,96.92
2023-04-17T08:33:49.032Z,96.91
2023-04-17T08:35:17.453Z,96.91
2023-04-17T08:36:51.619Z,96.90
2023-04-17T08:46:08.977Z,97.26
2023-04-17T08:47:41.493Z,97.29
2023-04-17T08:49:14.613Z,97.24
2023-04-17T08:50:27.023Z,97.22
2023-04-17T08:51:59.299Z,97.27
2023-04-17T08:53:32.040Z,97.25
2023-04-17T08:57:03.683Z,97.34
2023-04-17T08:58:31.637Z,97.28
2023-04-17T09:00:04.320Z,97.40
2023-04-17T09:01:37.028Z,97.29
2023-04-17T09:03:02.527Z,97.42
2023-04-17T09:04:41.271Z,97.51
2023-04-17T09:06:13.244Z,97.30
2023-04-17T09:07:47.351Z,97.21
2023-04-17T09:09:19.817Z,97.28
2023-04-17T09:10:43.451Z,97.29
2023-04-17T09:12:08.780Z,97.26
2023-04-17T09:13:41.374Z,97.25
2023-04-17T09:15:13.915Z,97.34
2023-04-17T09:16:40.542Z,97.48
2023-04-17T09:18:15.742Z,97.45
2023-04-17T09:19:52.683Z,97.40
2023-04-17T09:21:28.114Z,97.46
2023-04-17T09:22:58.801Z,97.58
2023-04-17T09:24:21.441Z,97.58
2023-04-17T09:25:33.547Z,97.57
2023-04-17T09:27:08.847Z,97.50
2023-04-17T09:28:44.351Z,97.42
2023-04-17T09:30:17.056Z,97.53
2023-04-17T09:31:58.511Z,97.68
2023-04-17T09:33:31.184Z,97.58
2023-04-17T09:34:46.483Z,97.80
2023-04-17T09:36:07.578Z,97.90
2023-04-17T09:37:40.059Z,97.69
2023-04-17T09:38:52.496Z,97.81
2023-04-17T09:40:33.586Z,97.75
2023-04-17T09:41:51.961Z,97.79
2023-04-17T09:43:04.473Z,97.87
2023-04-17T09:44:43.099Z,97.87
2023-04-17T09:46:18.135Z,97.86
2023-04-17T09:47:50.697Z,97.94
2023-04-17T09:49:23.345Z,97.87
2023-04-17T09:50:39.088Z,97.98
2023-04-17T09:52:11.887Z,97.86
2023-04-17T09:53:39.555Z,97.82
2023-04-17T09:55:12.114Z,98.08
2023-04-17T09:56:46.401Z,97.88
2023-04-17T09:58:20.719Z,98.02
2023-04-17T09:59:47.535Z,98.15
2023-04-17T10:01:02.962Z,98.06
2023-04-17T10:02:13.251Z,98.03
2023-04-17T10:03:36.682Z,98.12
2023-04-17T10:05:10.190Z,98.00
2023-04-17T10:06:42.887Z,98.17
2023-04-17T10:08:04.160Z,97.97
2023-04-17T10:09:26.115Z,97.94
2023-04-17T10:11:04.696Z,98.05
2023-04-17T10:12:17.968Z,98.14
2023-04-17T10:13:34.153Z,98.21
2023-04-17T10:15:02.636Z,98.20
2023-04-17T10:16:35.304Z,98.17
2023-04-17T10:18:26.112Z,98.38
2023-04-17T10:20:17.023Z,98.25
2023-04-17T10:21:59.846Z,98.15
2023-04-17T10:23:33.576Z,98.20
2023-04-17T10:25:06.270Z,98.30
2023-04-17T10:26:37.251Z,98.28
2023-04-17T10:28:25.049Z,98.37
2023-04-17T10:31:45.721Z,98.39
2023-04-17T10:33:11.647Z,98.40
2023-04-17T10:34:50.209Z,98.20
2023-04-17T10:36:22.855Z,98.15
2023-04-17T10:37:55.414Z,98.29
2023-04-17T10:39:30.727Z,98.23
2023-04-17T10:41:04.338Z,98.46
2023-04-17T10:42:45.803Z,98.33
2023-04-17T10:44:21.286Z,98.40
2023-04-17T10:45:56.889Z,98.25
2023-04-17T10:47:30.677Z,98.34
2023-04-17T10:49:07.204Z,98.33
2023-04-17T10:53:21.705Z,98.62
2023-04-17T10:56:31.683Z,98.61
2023-04-17T10:58:02.565Z,98.50
2023-04-17T10:59:29.455Z,98.46
2023-04-17T11:01:11.918Z,98.39
2023-04-17T11:02:51.823Z,98.37
2023-04-17T11:04:24.810Z,98.29
2023-04-17T11:21:04.272Z,98.33
2023-04-17T11:22:46.059Z,98.31
2023-04-17T11:24:18.615Z,98.29
2023-04-17T11:26:00.171Z,98.22
2023-04-17T11:27:32.696Z,98.22
2023-04-17T11:29:05.326Z,98.13
2023-04-17T11:30:38.085Z,98.10
2023-04-17T11:32:10.956Z,98.08
2023-04-17T12:06:49.508Z,97.83
2023-04-17T12:08:22.142Z,97.70
2023-04-17T12:10:00.563Z,97.82
2023-04-17T12:11:32.381Z,97.69
2023-04-17T12:13:04.973Z,97.67
2023-04-17T12:14:37.555Z,97.90
2023-04-17T12:16:10.285Z,97.73
2023-04-17T12:17:43.064Z,97.66
2023-04-17T12:19:16.708Z,97.55
2023-04-17T12:27:27.492Z,97.65
2023-04-17T12:29:00.055Z,97.61
2023-04-17T12:30:32.232Z,97.61
2023-04-17T12:32:05.007Z,97.49
2023-04-17T12:33:18.055Z,97.48
2023-04-17T12:34:52.008Z,97.55
2023-04-17T12:36:29.613Z,97.69
2023-04-17T12:38:03.717Z,97.44
2023-04-17T12:38:56.016Z,97.54
2023-04-17T12:40:29.583Z,97.58
2023-04-17T13:01:38.912Z,97.41
2023-04-17T13:03:12.845Z,97.44
2023-04-17T13:04:45.429Z,97.25
2023-04-17T13:06:07.851Z,97.43
2023-04-17T13:07:40.374Z,97.44
2023-04-17T13:09:13.386Z,97.39
2023-04-17T13:10:47.026Z,97.26
2023-04-17T13:18:37.145Z,97.18
2023-04-17T13:20:09.688Z,97.11
2023-04-17T13:21:22.155Z,97.13
2023-04-17T13:22:54.726Z,97.05
2023-04-17T13:24:17.543Z,97.00
2023-04-17T13:25:50.485Z,96.98
2023-04-17T13:27:15.839Z,96.99
2023-04-17T13:35:21.650Z,97.04
2023-04-17T13:36:54.245Z,96.80
2023-04-17T13:38:00.238Z,96.78
2023-04-17T13:39:18.296Z,96.76
2023-04-17T13:40:43.384Z,96.81
2023-04-17T13:41:56.532Z,96.58
2023-04-17T13:43:29.199Z,96.52
2023-04-17T13:45:02.852Z,96.44
2023-04-17T13:53:01.785Z,96.29
2023-04-17T13:54:34.614Z,96.12
2023-04-17T13:55:47.541Z,96.26
2023-04-17T13:57:20.202Z,96.25
2023-04-17T13:58:51.654Z,96.36
2023-04-17T14:02:24.049Z,96.10
2023-04-17T14:03:56.870Z,95.89
2023-04-17T14:05:29.427Z,95.95
2023-04-17T14:07:02.240Z,95.63
2023-04-17T14:08:35.001Z,95.81
2023-04-17T14:10:03.613Z,95.65
2023-04-17T14:19:14.060Z,95.46
2023-04-17T14:21:02.912Z,95.31
2023-04-17T14:22:40.835Z,95.25
2023-04-17T14:24:18.628Z,95.16
2023-04-17T14:28:31.880Z,95.22
2023-04-17T14:29:44.649Z,95.22
2023-04-17T14:30:57.245Z,95.21
2023-04-17T14:32:29.881Z,95.30
2023-04-17T14:34:02.520Z,95.15
2023-04-17T14:35:08.008Z,95.16
2023-04-17T14:53:53.484Z,94.73
2023-04-17T14:55:26.546Z,94.46
2023-04-17T14:56:59.881Z,94.53
2023-04-17T14:58:32.520Z,94.55
2023-04-17T15:00:05.477Z,94.43
2023-04-17T15:01:39.195Z,94.16
2023-04-17T15:03:12.068Z,94.21
2023-04-17T15:04:50.603Z,94.16
2023-04-17T15:06:23.935Z,93.96
2023-04-17T15:07:37.313Z,93.92
2023-04-17T15:10:50.329Z,93.82
2023-04-17T15:12:25.650Z,93.59
2023-04-17T15:13:52.633Z,93.48
2023-04-17T15:15:26.469Z,93.58
2023-04-17T15:17:00.752Z,93.64
2023-04-17T15:28:10.056Z,92.78
2023-04-17T15:29:42.816Z,92.42
2023-04-17T15:31:15.429Z,92.37
2023-04-17T15:32:48.022Z,92.41
2023-04-17T15:34:20.646Z,92.24
2023-04-17T15:35:53.333Z,92.16
2023-04-17T15:37:26.056Z,92.04
2023-04-17T15:39:00.135Z,91.93
2023-04-17T15:44:47.508Z,91.69
2023-04-17T15:46:10.574Z,91.65
2023-04-17T15:47:24.438Z,91.52
2023-04-17T15:49:08.299Z,91.44
2023-04-17T15:50:43.170Z,91.31
2023-04-17T15:52:17.490Z,91.39
2023-04-17T15:56:36.749Z,91.31
2023-04-17T16:09:17.921Z,90.91
2023-04-17T16:12:24.553Z,90.89
2023-04-17T16:13:59.781Z,90.82
2023-04-17T16:15:35.498Z,90.75
2023-04-17T16:18:32.740Z,90.70
2023-04-17T16:24:34.062Z,90.80
2023-04-17T16:26:09.592Z,90.72
2023-04-17T16:27:44.567Z,90.59
2023-04-17T16:29:19.097Z,90.78
2023-04-17T16:44:43.592Z,90.66
2023-04-17T16:46:23.993Z,90.78
2023-04-17T16:48:09.379Z,90.61
2023-04-17T16:49:35.939Z,90.67
2023-04-17T16:51:10.169Z,90.72
2023-04-17T16:52:24.678Z,90.82
2023-04-17T16:53:58.267Z,90.80
2023-04-17T17:06:54.356Z,90.64
2023-04-17T17:22:52.408Z,90.61
2023-04-17T17:24:25.105Z,90.64
2023-04-17T17:25:57.664Z,90.46
2023-04-17T17:27:20.673Z,90.72
2023-04-17T17:28:53.694Z,90.45
2023-04-17T17:30:26.491Z,90.32
2023-04-17T17:31:42.082Z,90.53
2023-04-17T17:33:16.015Z,90.63
2023-04-17T17:40:45.340Z,90.65
2023-04-17T17:42:19.341Z,90.58
2023-04-17T17:43:54.221Z,90.60
2023-04-17T17:45:28.547Z,90.62
2023-04-17T17:47:02.569Z,90.53
2023-04-17T17:48:37.470Z,90.77
2023-04-17T17:50:12.545Z,90.78
2023-04-17T17:51:36.744Z,90.85
2023-04-17T18:02:19.687Z,90.89
2023-04-17T18:03:52.667Z,90.97
2023-04-17T18:05:14.514Z,90.96
2023-04-17T18:06:47.368Z,90.98
2023-04-17T18:07:59.902Z,91.10
2023-04-17T18:09:32.511Z,91.10
2023-04-17T18:11:05.876Z,91.14
2023-04-17T18:12:39.661Z,91.16
2023-04-17T18:29:24.514Z,91.58
2023-04-17T18:30:57.071Z,91.50
2023-04-17T18:32:29.643Z,91.59
2023-04-17T18:33:55.333Z,91.67
2023-04-17T18:35:28.610Z,91.69
2023-04-17T18:37:03.241Z,91.68
2023-04-17T18:38:36.594Z,91.88
2023-04-17T18:40:10.423Z,91.95
2023-04-17T18:41:43.278Z,92.00
2023-04-17T18:43:06.250Z,91.93
2023-04-17T18:56:53.614Z,92.54
2023-04-17T18:58:15.066Z,92.61
2023-04-17T18:59:47.588Z,92.69
2023-04-17T19:01:10.917Z,92.76
2023-04-17T19:02:43.702Z,92.86
2023-04-17T19:04:09.205Z,92.96
2023-04-17T19:05:22.150Z,93.21
2023-04-17T19:06:55.054Z,93.17
2023-04-17T19:08:12.558Z,93.25
2023-04-17T19:09:45.555Z,93.17
2023-04-17T19:24:10.052Z,93.95
2023-04-17T19:25:42.692Z,93.83
2023-04-17T19:27:15.323Z,94.12
2023-04-17T19:28:47.906Z,94.01
2023-04-17T19:30:20.749Z,93.97
2023-04-17T19:30:52.533Z,94.20
2023-04-17T19:32:25.035Z,94.17
2023-04-17T19:33:57.594Z,93.93
2023-04-17T19:35:33.001Z,94.16
2023-04-17T19:37:05.830Z,94.14
2023-04-17T19:37:57.828Z,94.14
2023-04-17T19:39:19.464Z,94.07
2023-04-17T19:40:44.997Z,94.17
2023-04-17T19:50:15.545Z,94.24
2023-04-17T19:51:48.227Z,94.27
2023-04-17T19:53:20.786Z,94.24
2023-04-17T19:54:53.275Z,94.25
2023-04-17T19:56:25.944Z,94.28
2023-04-17T19:57:58.951Z,94.23
2023-04-17T20:08:56.638Z,94.59
2023-04-17T20:10:19.273Z,94.82
2023-04-17T20:11:34.102Z,94.65
2023-04-17T20:13:06.696Z,94.67
2023-04-17T20:14:39.218Z,94.67
2023-04-17T20:16:01.205Z,94.67
2023-04-17T20:17:33.750Z,94.73
2023-04-17T20:19:06.941Z,94.83
2023-04-17T20:20:40.745Z,94.75
2023-04-17T20:22:14.121Z,94.98
2023-04-17T20:45:36.385Z,95.17
2023-04-17T20:47:09.110Z,95.26
2023-04-17T20:48:44.876Z,95.31
2023-04-17T20:50:07.741Z,95.13
2023-04-17T20:51:20.085Z,95.23
2023-04-17T20:52:45.673Z,95.47
2023-04-17T20:54:01.154Z,95.13
2023-04-17T20:55:23.797Z,95.47
2023-04-17T20:56:56.260Z,95.27
2023-04-17T20:58:29.097Z,95.22
2023-04-17T21:31:03.780Z,94.75
2023-04-17T21:32:37.892Z,94.91
2023-04-17T21:34:11.644Z,94.70
2023-04-17T21:35:44.754Z,94.32
2023-04-17T21:37:18.104Z,94.50
2023-04-17T21:38:50.774Z,94.54
2023-04-17T21:40:25.302Z,94.54
2023-04-17T21:41:59.893Z,94.22
2023-04-17T21:48:34.524Z,94.32
2023-04-17T21:49:59.886Z,94.24
2023-04-17T21:51:12.316Z,94.25
2023-04-17T21:52:44.916Z,94.18
2023-04-17T21:53:57.391Z,94.28
2023-04-17T21:55:29.950Z,94.27
2023-04-17T21:56:52.767Z,94.20
2023-04-17T21:58:25.403Z,94.26
2023-04-17T21:59:57.952Z,94.17
2023-04-17T22:01:31.000Z,94.30
2023-04-17T22:03:04.848Z,94.16
2023-04-17T22:04:37.703Z,94.25
2023-04-17T22:06:10.461Z,94.31
2023-04-17T22:07:53.708Z,94.32
2023-04-17T22:09:29.108Z,94.47
2023-04-17T22:11:02.111Z,94.46
2023-04-17T22:12:23.768Z,94.43
2023-04-17T22:39:00.198Z,94.13
2023-04-17T22:40:29.581Z,93.98
2023-04-17T22:41:53.543Z,93.94
2023-04-17T22:44:56.229Z,93.83
2023-04-17T22:46:27.188Z,93.83
2023-04-17T22:47:57.058Z,94.09
2023-04-17T22:49:28.285Z,94.01
2023-04-17T22:50:56.361Z,93.95
2023-04-17T22:52:27.268Z,93.98
2023-04-17T22:53:56.658Z,93.51
2023-04-17T22:55:27.745Z,93.74
2023-04-17T22:56:58.872Z,93.87
2023-04-17T22:58:29.503Z,93.80
2023-04-17T22:59:59.081Z,93.96
2023-04-17T23:01:30.033Z,94.01
2023-04-17T23:03:02.819Z,93.95
2023-04-17T23:04:12.644Z,93.89
2023-04-17T23:05:43.090Z,93.88
2023-04-17T23:07:12.734Z,93.89
2023-04-17T23:08:40.873Z,93.90
2023-04-17T23:10:13.383Z,93.99
2023-04-17T23:11:46.131Z,94.19
2023-04-17T23:13:18.615Z,93.98
2023-04-17T23:14:51.108Z,94.16
2023-04-17T23:16:23.301Z,94.05
2023-04-17T23:17:49.435Z,94.06
2023-04-17T23:25:36.220Z,94.17
2023-04-17T23:27:08.729Z,94.11
2023-04-17T23:28:41.424Z,94.07
2023-04-17T23:30:13.836Z,94.21
2023-04-17T23:31:46.502Z,94.24
2023-04-17T23:33:20.429Z,94.26
2023-04-17T23:34:53.493Z,94.23
2023-04-17T23:36:27.100Z,94.16
2023-04-17T23:49:33.356Z,94.32
2023-04-17T23:51:06.166Z,94.30
2023-04-17T23:52:38.697Z,94.39
2023-04-17T23:54:11.621Z,94.36
2023-04-17T23:55:47.597Z,94.34
2023-04-17T23:57:20.145Z,94.32
2023-04-17T23:58:53.081Z,94.40
